Terminal Aerodrome Forecast
Issued by NWS Sioux Falls, SD

Home | Current Version | Previous Version | Text Only | Print | Product List | Glossary On
Versions: 1 2 3 4 5 6 7 8 9 10 11 12 13 14 15 16 17 18 19
000
FTUS43 KFSD 220900 AAA
TAFHON
TAF AMD
KHON 220900Z 2209/2306 VRB03KT 2SM BR SCT002
      TEMPO 2209/2212 1SM BR BKN002
     FM221200 07005KT P6SM SCT100 BKN250
     FM222100 11005KT P6SM BKN110
     FM230100 08006KT P6SM BKN035=

USA.gov is the U.S. government's official web portal to all federal, state and local government web resources and services.